SEGU/GYE METAR and TAF weather

Enter ICAO airport designator
Station Type Date Time Source
SEGU METAR 2022/07/01 01:00 UTC NOAA

SEGU 010100Z 17004KT 9999 FEW030 25/20 Q1011 NOSIG RMK A2985


Station Type Date Time Source
SEGU Decoded METAR 2022/07/01 01:00 UTC NOAA

Guayaquil / Simon Bolivar, Ecuador (SEGU) 02-09S 079-53W 9M
Jun 30, 2022 - 09:00 PM EDT / 2022.07.01 0100 UTC
Wind: from the S (170 degrees) at 5 MPH (4 KT):0
Visibility: greater than 7 mile(s):0
Sky conditions: mostly clear
Temperature: 77 F (25 C)
Dew Point: 68 F (20 C)
Relative Humidity: 73%
Pressure (altimeter): 29.85 in. Hg (1011 hPa)
ob: SEGU 010100Z 17004KT 9999 FEW030 25/20 Q1011 NOSIG RMK A2985
cycle: 1

Station Type Date Time Source
SEGU TAF 2022/06/30 18:06 UTC NOAA

TAF TAF SEGU 301645Z 3018/0118 15006KT 9999 FEW023
BECMG 0100/0102 22010KT SCT020 SCT100
BECMG 0113/0115 15006KT TX30/3020Z TN21/0110Z

Example: see airport list